sensor_id;sensor_type;location;lat;lon;timestamp;temperature;humidity
36716;DHT22;22699;51.034;3.730;2024-02-04T00:02:00;11.40;99.90
36716;DHT22;22699;51.034;3.730;2024-02-04T00:04:25;11.90;99.90
36716;DHT22;22699;51.034;3.730;2024-02-04T00:06:51;11.80;99.90
36716;DHT22;22699;51.034;3.730;2024-02-04T00:09:16;11.80;99.90
36716;DHT22;22699;51.034;3.730;2024-02-04T00:11:43;11.70;99.90
36716;DHT22;22699;51.034;3.730;2024-02-04T00:14:10;11.80;99.90
36716;DHT22;22699;51.034;3.730;2024-02-04T00:16:35;11.90;99.90
36716;DHT22;22699;51.034;3.730;2024-02-04T00:19:01;11.80;99.90
36716;DHT22;22699;51.034;3.730;2024-02-04T00:21:27;11.80;99.90
36716;DHT22;22699;51.034;3.730;2024-02-04T00:23:54;11.70;99.90
36716;DHT22;22699;51.034;3.730;2024-02-04T00:26:20;11.70;99.90
36716;DHT22;22699;51.034;3.730;2024-02-04T00:28:45;11.60;99.90
36716;DHT22;22699;51.034;3.730;2024-02-04T00:31:11;11.50;99.90
36716;DHT22;22699;51.034;3.730;2024-02-04T00:33:37;11.50;99.90
36716;DHT22;22699;51.034;3.730;2024-02-04T00:36:03;11.60;99.90
36716;DHT22;22699;51.034;3.730;2024-02-04T00:38:29;11.60;99.90
36716;DHT22;22699;51.034;3.730;2024-02-04T00:40:55;11.50;99.90
36716;DHT22;22699;51.034;3.730;2024-02-04T00:43:22;11.50;99.90
36716;DHT22;22699;51.034;3.730;2024-02-04T00:45:48;11.60;99.90
36716;DHT22;22699;51.034;3.730;2024-02-04T00:48:14;11.90;99.90
36716;DHT22;22699;51.034;3.730;2024-02-04T00:50:40;11.60;99.90
36716;DHT22;22699;51.034;3.730;2024-02-04T00:53:05;11.40;99.90
36716;DHT22;22699;51.034;3.730;2024-02-04T00:55:32;11.50;99.90
36716;DHT22;22699;51.034;3.730;2024-02-04T00:57:57;11.90;99.90
36716;DHT22;22699;51.034;3.730;2024-02-04T01:00:25;11.50;99.90
36716;DHT22;22699;51.034;3.730;2024-02-04T01:02:51;11.40;99.90
36716;DHT22;22699;51.034;3.730;2024-02-04T01:05:16;11.40;99.90
36716;DHT22;22699;51.034;3.730;2024-02-04T01:07:42;11.30;99.90
36716;DHT22;22699;51.034;3.730;2024-02-04T01:10:09;11.30;99.90
36716;DHT22;22699;51.034;3.730;2024-02-04T01:12:35;11.30;99.90
36716;DHT22;22699;51.034;3.730;2024-02-04T01:15:01;11.20;99.90
36716;DHT22;22699;51.034;3.730;2024-02-04T01:17:28;11.30;99.90
36716;DHT22;22699;51.034;3.730;2024-02-04T01:19:54;11.20;99.90
36716;DHT22;22699;51.034;3.730;2024-02-04T01:22:19;11.20;99.90
36716;DHT22;22699;51.034;3.730;2024-02-04T01:24:50;11.10;99.90
36716;DHT22;22699;51.034;3.730;2024-02-04T01:27:16;11.30;99.90
36716;DHT22;22699;51.034;3.730;2024-02-04T01:29:41;11.30;99.90
36716;DHT22;22699;51.034;3.730;2024-02-04T01:32:07;11.30;99.90
36716;DHT22;22699;51.034;3.730;2024-02-04T01:34:32;11.30;99.90
36716;DHT22;22699;51.034;3.730;2024-02-04T01:36:58;11.30;99.90
36716;DHT22;22699;51.034;3.730;2024-02-04T01:39:24;11.80;99.90
36716;DHT22;22699;51.034;3.730;2024-02-04T01:41:50;11.60;99.90
36716;DHT22;22699;51.034;3.730;2024-02-04T01:44:16;11.60;99.90
36716;DHT22;22699;51.034;3.730;2024-02-04T01:46:43;11.40;99.90
36716;DHT22;22699;51.034;3.730;2024-02-04T01:49:10;11.40;99.90
36716;DHT22;22699;51.034;3.730;2024-02-04T01:51:36;11.40;99.90
36716;DHT22;22699;51.034;3.730;2024-02-04T01:54:03;11.40;99.90
36716;DHT22;22699;51.034;3.730;2024-02-04T01:56:29;11.30;99.90
36716;DHT22;22699;51.034;3.730;2024-02-04T01:59:01;11.50;99.90
36716;DHT22;22699;51.034;3.730;2024-02-04T02:01:27;11.40;99.90
36716;DHT22;22699;51.034;3.730;2024-02-04T02:03:53;11.50;99.90
36716;DHT22;22699;51.034;3.730;2024-02-04T02:06:19;11.40;99.90
36716;DHT22;22699;51.034;3.730;2024-02-04T02:08:45;11.40;99.90
36716;DHT22;22699;51.034;3.730;2024-02-04T02:11:18;11.40;99.90
36716;DHT22;22699;51.034;3.730;2024-02-04T02:13:51;11.40;99.90
36716;DHT22;22699;51.034;3.730;2024-02-04T02:16:19;11.40;99.90
36716;DHT22;22699;51.034;3.730;2024-02-04T02:19:03;11.40;99.90
36716;DHT22;22699;51.034;3.730;2024-02-04T02:26:49;11.50;99.90
36716;DHT22;22699;51.034;3.730;2024-02-04T02:29:15;11.30;99.90
36716;DHT22;22699;51.034;3.730;2024-02-04T02:31:42;11.40;99.90
36716;DHT22;22699;51.034;3.730;2024-02-04T02:34:09;11.40;99.90
36716;DHT22;22699;51.034;3.730;2024-02-04T02:36:44;11.30;99.90
36716;DHT22;22699;51.034;3.730;2024-02-04T02:39:21;11.40;99.90
36716;DHT22;22699;51.034;3.730;2024-02-04T02:41:50;11.30;99.90
36716;DHT22;22699;51.034;3.730;2024-02-04T02:44:18;11.20;99.90
36716;DHT22;22699;51.034;3.730;2024-02-04T02:46:46;11.20;99.90
36716;DHT22;22699;51.034;3.730;2024-02-04T02:49:12;11.20;99.90
36716;DHT22;22699;51.034;3.730;2024-02-04T02:51:38;11.30;99.90
36716;DHT22;22699;51.034;3.730;2024-02-04T02:54:04;11.30;99.90
36716;DHT22;22699;51.034;3.730;2024-02-04T02:56:29;11.20;99.90
36716;DHT22;22699;51.034;3.730;2024-02-04T02:58:55;11.30;99.90
36716;DHT22;22699;51.034;3.730;2024-02-04T03:01:21;11.30;99.90
36716;DHT22;22699;51.034;3.730;2024-02-04T03:03:46;11.20;99.90
36716;DHT22;22699;51.034;3.730;2024-02-04T03:06:12;11.40;99.90
36716;DHT22;22699;51.034;3.730;2024-02-04T03:08:37;11.60;99.90
36716;DHT22;22699;51.034;3.730;2024-02-04T03:11:03;11.40;99.90
36716;DHT22;22699;51.034;3.730;2024-02-04T03:13:29;11.30;99.90
36716;DHT22;22699;51.034;3.730;2024-02-04T03:15:56;11.20;99.90
36716;DHT22;22699;51.034;3.730;2024-02-04T03:18:22;11.30;99.90
36716;DHT22;22699;51.034;3.730;2024-02-04T03:20:47;11.20;99.90
36716;DHT22;22699;51.034;3.730;2024-02-04T03:23:13;11.10;99.90
36716;DHT22;22699;51.034;3.730;2024-02-04T03:25:39;11.00;99.90
36716;DHT22;22699;51.034;3.730;2024-02-04T03:28:05;11.10;99.90
36716;DHT22;22699;51.034;3.730;2024-02-04T03:30:30;11.30;99.90
36716;DHT22;22699;51.034;3.730;2024-02-04T03:32:56;11.20;99.90
36716;DHT22;22699;51.034;3.730;2024-02-04T03:35:22;11.40;99.90
36716;DHT22;22699;51.034;3.730;2024-02-04T03:37:47;11.20;99.90
36716;DHT22;22699;51.034;3.730;2024-02-04T03:40:13;11.30;99.90
36716;DHT22;22699;51.034;3.730;2024-02-04T03:42:39;11.20;99.90
36716;DHT22;22699;51.034;3.730;2024-02-04T03:45:06;11.20;99.90
36716;DHT22;22699;51.034;3.730;2024-02-04T03:47:32;11.10;99.90
36716;DHT22;22699;51.034;3.730;2024-02-04T03:49:57;11.10;99.90
36716;DHT22;22699;51.034;3.730;2024-02-04T03:52:23;11.00;99.90
36716;DHT22;22699;51.034;3.730;2024-02-04T03:54:49;11.00;99.90
36716;DHT22;22699;51.034;3.730;2024-02-04T03:57:20;11.20;99.90
36716;DHT22;22699;51.034;3.730;2024-02-04T03:59:46;11.10;99.90
36716;DHT22;22699;51.034;3.730;2024-02-04T04:02:13;11.30;99.90
36716;DHT22;22699;51.034;3.730;2024-02-04T04:04:40;11.20;99.90
36716;DHT22;22699;51.034;3.730;2024-02-04T04:07:07;11.10;99.90
36716;DHT22;22699;51.034;3.730;2024-02-04T04:09:32;11.40;99.90
36716;DHT22;22699;51.034;3.730;2024-02-04T04:11:58;11.30;99.90
36716;DHT22;22699;51.034;3.730;2024-02-04T04:14:24;11.40;99.90
36716;DHT22;22699;51.034;3.730;2024-02-04T04:16:49;11.30;99.90
36716;DHT22;22699;51.034;3.730;2024-02-04T04:19:15;11.20;99.90
36716;DHT22;22699;51.034;3.730;2024-02-04T04:21:40;11.10;99.90
36716;DHT22;22699;51.034;3.730;2024-02-04T04:24:06;11.20;99.90
36716;DHT22;22699;51.034;3.730;2024-02-04T04:26:32;11.10;99.90
36716;DHT22;22699;51.034;3.730;2024-02-04T04:29:00;11.20;99.90
36716;DHT22;22699;51.034;3.730;2024-02-04T04:31:27;11.10;99.90
36716;DHT22;22699;51.034;3.730;2024-02-04T04:33:54;11.10;99.90
36716;DHT22;22699;51.034;3.730;2024-02-04T04:36:20;11.20;99.90
36716;DHT22;22699;51.034;3.730;2024-02-04T04:38:45;11.30;99.90
36716;DHT22;22699;51.034;3.730;2024-02-04T04:41:15;11.60;99.90
36716;DHT22;22699;51.034;3.730;2024-02-04T04:43:40;11.30;99.90
36716;DHT22;22699;51.034;3.730;2024-02-04T04:46:06;11.20;99.90
36716;DHT22;22699;51.034;3.730;2024-02-04T04:48:32;11.30;99.90
36716;DHT22;22699;51.034;3.730;2024-02-04T04:50:59;11.00;99.90
36716;DHT22;22699;51.034;3.730;2024-02-04T04:53:25;11.10;99.90
36716;DHT22;22699;51.034;3.730;2024-02-04T04:55:52;11.10;99.90
36716;DHT22;22699;51.034;3.730;2024-02-04T04:58:17;11.20;99.90
36716;DHT22;22699;51.034;3.730;2024-02-04T05:00:43;11.10;99.90
36716;DHT22;22699;51.034;3.730;2024-02-04T05:03:09;11.00;99.90
36716;DHT22;22699;51.034;3.730;2024-02-04T05:05:35;11.10;99.90
36716;DHT22;22699;51.034;3.730;2024-02-04T05:08:01;11.20;99.90
36716;DHT22;22699;51.034;3.730;2024-02-04T05:10:26;11.30;99.90
36716;DHT22;22699;51.034;3.730;2024-02-04T05:12:52;11.40;99.90
36716;DHT22;22699;51.034;3.730;2024-02-04T05:15:18;11.50;99.90
36716;DHT22;22699;51.034;3.730;2024-02-04T05:17:45;11.70;99.90
36716;DHT22;22699;51.034;3.730;2024-02-04T05:20:10;11.60;99.90
36716;DHT22;22699;51.034;3.730;2024-02-04T05:22:38;11.50;99.90
36716;DHT22;22699;51.034;3.730;2024-02-04T05:25:06;11.40;99.90
36716;DHT22;22699;51.034;3.730;2024-02-04T05:27:32;11.30;99.90
36716;DHT22;22699;51.034;3.730;2024-02-04T05:29:58;11.40;99.90
36716;DHT22;22699;51.034;3.730;2024-02-04T05:32:23;11.10;99.90
36716;DHT22;22699;51.034;3.730;2024-02-04T05:34:49;11.10;99.90
36716;DHT22;22699;51.034;3.730;2024-02-04T05:37:15;11.10;99.90
36716;DHT22;22699;51.034;3.730;2024-02-04T05:39:40;11.20;99.90
36716;DHT22;22699;51.034;3.730;2024-02-04T05:42:06;11.50;99.90
36716;DHT22;22699;51.034;3.730;2024-02-04T05:44:31;11.40;99.90
36716;DHT22;22699;51.034;3.730;2024-02-04T05:46:57;11.10;99.90
36716;DHT22;22699;51.034;3.730;2024-02-04T05:49:23;11.30;99.90
36716;DHT22;22699;51.034;3.730;2024-02-04T05:51:48;11.30;99.90
36716;DHT22;22699;51.034;3.730;2024-02-04T05:54:14;11.10;99.90
36716;DHT22;22699;51.034;3.730;2024-02-04T05:56:40;11.20;99.90
36716;DHT22;22699;51.034;3.730;2024-02-04T05:59:06;11.30;99.90
36716;DHT22;22699;51.034;3.730;2024-02-04T06:01:32;11.20;99.90
36716;DHT22;22699;51.034;3.730;2024-02-04T06:03:58;11.30;99.90
36716;DHT22;22699;51.034;3.730;2024-02-04T06:06:24;11.20;99.90
36716;DHT22;22699;51.034;3.730;2024-02-04T06:08:49;11.10;99.90
36716;DHT22;22699;51.034;3.730;2024-02-04T06:11:15;11.20;99.90
36716;DHT22;22699;51.034;3.730;2024-02-04T06:13:43;11.30;99.90
36716;DHT22;22699;51.034;3.730;2024-02-04T06:16:08;11.50;99.90
36716;DHT22;22699;51.034;3.730;2024-02-04T06:18:36;11.60;99.90
36716;DHT22;22699;51.034;3.730;2024-02-04T06:21:07;11.50;99.90
36716;DHT22;22699;51.034;3.730;2024-02-04T06:23:33;11.60;99.90
36716;DHT22;22699;51.034;3.730;2024-02-04T06:26:00;11.40;99.90
36716;DHT22;22699;51.034;3.730;2024-02-04T06:28:26;11.50;99.90
36716;DHT22;22699;51.034;3.730;2024-02-04T06:30:51;11.40;99.90
36716;DHT22;22699;51.034;3.730;2024-02-04T06:33:18;11.20;99.90
36716;DHT22;22699;51.034;3.730;2024-02-04T06:35:50;11.20;99.90
36716;DHT22;22699;51.034;3.730;2024-02-04T06:38:15;11.30;99.90
36716;DHT22;22699;51.034;3.730;2024-02-04T06:40:41;11.10;99.90
36716;DHT22;22699;51.034;3.730;2024-02-04T06:43:07;11.10;99.90
36716;DHT22;22699;51.034;3.730;2024-02-04T06:45:32;11.00;99.90
36716;DHT22;22699;51.034;3.730;2024-02-04T06:47:59;10.90;99.90
36716;DHT22;22699;51.034;3.730;2024-02-04T06:50:25;10.90;99.90
36716;DHT22;22699;51.034;3.730;2024-02-04T06:52:51;11.00;99.90
36716;DHT22;22699;51.034;3.730;2024-02-04T06:55:16;10.90;99.90
36716;DHT22;22699;51.034;3.730;2024-02-04T06:57:42;10.90;99.90
36716;DHT22;22699;51.034;3.730;2024-02-04T07:00:09;11.00;99.90
36716;DHT22;22699;51.034;3.730;2024-02-04T07:02:35;11.00;99.90
36716;DHT22;22699;51.034;3.730;2024-02-04T07:05:00;11.10;99.90
36716;DHT22;22699;51.034;3.730;2024-02-04T07:07:26;11.10;99.90
36716;DHT22;22699;51.034;3.730;2024-02-04T07:09:52;11.00;99.90
36716;DHT22;22699;51.034;3.730;2024-02-04T07:12:17;11.10;99.90
36716;DHT22;22699;51.034;3.730;2024-02-04T07:14:43;11.10;99.90
36716;DHT22;22699;51.034;3.730;2024-02-04T07:17:09;11.10;99.90
36716;DHT22;22699;51.034;3.730;2024-02-04T07:19:34;11.20;99.90
36716;DHT22;22699;51.034;3.730;2024-02-04T07:22:01;11.20;99.90
36716;DHT22;22699;51.034;3.730;2024-02-04T07:24:27;11.30;99.90
36716;DHT22;22699;51.034;3.730;2024-02-04T07:26:52;11.20;99.90
36716;DHT22;22699;51.034;3.730;2024-02-04T07:29:18;11.20;99.90
36716;DHT22;22699;51.034;3.730;2024-02-04T07:31:44;11.30;99.90
36716;DHT22;22699;51.034;3.730;2024-02-04T07:34:10;11.10;99.90
36716;DHT22;22699;51.034;3.730;2024-02-04T07:36:35;11.20;99.90
36716;DHT22;22699;51.034;3.730;2024-02-04T07:39:01;11.20;99.90
36716;DHT22;22699;51.034;3.730;2024-02-04T07:41:30;11.20;99.90
36716;DHT22;22699;51.034;3.730;2024-02-04T07:43:56;11.30;99.90
36716;DHT22;22699;51.034;3.730;2024-02-04T07:46:21;11.10;99.90
36716;DHT22;22699;51.034;3.730;2024-02-04T07:48:47;11.30;99.90
36716;DHT22;22699;51.034;3.730;2024-02-04T07:51:13;11.30;99.90
36716;DHT22;22699;51.034;3.730;2024-02-04T07:53:38;11.30;99.90
36716;DHT22;22699;51.034;3.730;2024-02-04T07:56:04;11.40;99.90
36716;DHT22;22699;51.034;3.730;2024-02-04T07:58:32;11.30;99.90
36716;DHT22;22699;51.034;3.730;2024-02-04T08:00:58;11.60;99.90
36716;DHT22;22699;51.034;3.730;2024-02-04T08:03:23;11.40;99.90
36716;DHT22;22699;51.034;3.730;2024-02-04T08:05:49;11.30;99.90
36716;DHT22;22699;51.034;3.730;2024-02-04T08:08:15;11.30;99.90
36716;DHT22;22699;51.034;3.730;2024-02-04T08:10:40;11.40;99.90
36716;DHT22;22699;51.034;3.730;2024-02-04T08:13:06;11.20;99.90
36716;DHT22;22699;51.034;3.730;2024-02-04T08:15:32;11.30;99.90
36716;DHT22;22699;51.034;3.730;2024-02-04T08:17:57;11.30;99.90
36716;DHT22;22699;51.034;3.730;2024-02-04T08:20:23;11.60;99.90
36716;DHT22;22699;51.034;3.730;2024-02-04T08:22:48;11.40;99.90
36716;DHT22;22699;51.034;3.730;2024-02-04T08:25:14;11.40;99.90
36716;DHT22;22699;51.034;3.730;2024-02-04T08:27:40;11.40;99.90
36716;DHT22;22699;51.034;3.730;2024-02-04T08:30:06;11.40;99.90
36716;DHT22;22699;51.034;3.730;2024-02-04T08:32:32;11.50;99.90
36716;DHT22;22699;51.034;3.730;2024-02-04T08:34:58;11.50;99.90
36716;DHT22;22699;51.034;3.730;2024-02-04T08:37:23;11.50;99.90
36716;DHT22;22699;51.034;3.730;2024-02-04T08:39:49;11.40;99.90
36716;DHT22;22699;51.034;3.730;2024-02-04T08:42:15;11.60;99.90
36716;DHT22;22699;51.034;3.730;2024-02-04T08:44:41;11.60;99.90
36716;DHT22;22699;51.034;3.730;2024-02-04T08:47:07;11.60;99.90
36716;DHT22;22699;51.034;3.730;2024-02-04T08:49:35;11.60;99.90
36716;DHT22;22699;51.034;3.730;2024-02-04T08:52:02;11.60;99.90
36716;DHT22;22699;51.034;3.730;2024-02-04T08:54:28;11.60;99.90
36716;DHT22;22699;51.034;3.730;2024-02-04T08:56:53;11.50;99.90
36716;DHT22;22699;51.034;3.730;2024-02-04T08:59:19;11.70;99.90
36716;DHT22;22699;51.034;3.730;2024-02-04T09:01:45;11.70;99.90
36716;DHT22;22699;51.034;3.730;2024-02-04T09:04:11;11.90;99.90
36716;DHT22;22699;51.034;3.730;2024-02-04T09:06:36;11.80;99.90
36716;DHT22;22699;51.034;3.730;2024-02-04T09:09:02;12.00;99.90
36716;DHT22;22699;51.034;3.730;2024-02-04T09:11:27;11.70;99.90
36716;DHT22;22699;51.034;3.730;2024-02-04T09:13:53;11.70;99.90
36716;DHT22;22699;51.034;3.730;2024-02-04T09:16:19;11.70;99.90
36716;DHT22;22699;51.034;3.730;2024-02-04T09:18:44;11.70;99.90
36716;DHT22;22699;51.034;3.730;2024-02-04T09:21:12;11.80;99.90
36716;DHT22;22699;51.034;3.730;2024-02-04T09:23:38;11.90;99.90
36716;DHT22;22699;51.034;3.730;2024-02-04T09:26:04;11.80;99.90
36716;DHT22;22699;51.034;3.730;2024-02-04T09:28:29;12.00;99.90
36716;DHT22;22699;51.034;3.730;2024-02-04T09:30:56;11.90;99.90
36716;DHT22;22699;51.034;3.730;2024-02-04T09:33:22;11.90;99.90
36716;DHT22;22699;51.034;3.730;2024-02-04T09:35:48;11.90;99.90
36716;DHT22;22699;51.034;3.730;2024-02-04T09:38:14;12.00;99.90
36716;DHT22;22699;51.034;3.730;2024-02-04T09:40:41;12.40;99.90
36716;DHT22;22699;51.034;3.730;2024-02-04T09:43:06;12.00;99.90
36716;DHT22;22699;51.034;3.730;2024-02-04T09:45:33;12.20;99.90
36716;DHT22;22699;51.034;3.730;2024-02-04T09:48:00;12.20;99.90
36716;DHT22;22699;51.034;3.730;2024-02-04T09:50:26;12.20;99.90
36716;DHT22;22699;51.034;3.730;2024-02-04T09:52:57;12.40;99.90
36716;DHT22;22699;51.034;3.730;2024-02-04T09:55:24;12.30;99.90
36716;DHT22;22699;51.034;3.730;2024-02-04T09:57:51;12.20;99.90
36716;DHT22;22699;51.034;3.730;2024-02-04T10:00:19;12.30;99.90
36716;DHT22;22699;51.034;3.730;2024-02-04T10:02:48;12.30;99.90
36716;DHT22;22699;51.034;3.730;2024-02-04T10:05:17;12.30;99.90
36716;DHT22;22699;51.034;3.730;2024-02-04T10:07:42;12.50;99.90
36716;DHT22;22699;51.034;3.730;2024-02-04T10:10:09;12.60;99.90
36716;DHT22;22699;51.034;3.730;2024-02-04T10:12:37;12.70;99.90
36716;DHT22;22699;51.034;3.730;2024-02-04T10:15:04;12.50;99.90
36716;DHT22;22699;51.034;3.730;2024-02-04T10:17:31;12.60;99.90
36716;DHT22;22699;51.034;3.730;2024-02-04T10:19:57;12.60;99.90
36716;DHT22;22699;51.034;3.730;2024-02-04T10:22:26;12.50;99.90
36716;DHT22;22699;51.034;3.730;2024-02-04T10:24:52;12.50;99.90
36716;DHT22;22699;51.034;3.730;2024-02-04T10:27:18;12.60;99.90
36716;DHT22;22699;51.034;3.730;2024-02-04T10:29:44;12.60;99.90
36716;DHT22;22699;51.034;3.730;2024-02-04T10:32:10;12.50;99.90
36716;DHT22;22699;51.034;3.730;2024-02-04T10:34:39;12.30;99.90
36716;DHT22;22699;51.034;3.730;2024-02-04T10:37:05;12.50;99.90
36716;DHT22;22699;51.034;3.730;2024-02-04T10:39:30;12.30;99.90
36716;DHT22;22699;51.034;3.730;2024-02-04T10:42:01;12.50;99.90
36716;DHT22;22699;51.034;3.730;2024-02-04T10:44:28;12.40;99.90
36716;DHT22;22699;51.034;3.730;2024-02-04T10:46:55;12.40;99.90
36716;DHT22;22699;51.034;3.730;2024-02-04T10:49:26;12.60;99.90
36716;DHT22;22699;51.034;3.730;2024-02-04T10:51:53;12.50;99.90
36716;DHT22;22699;51.034;3.730;2024-02-04T10:54:22;12.40;99.90
36716;DHT22;22699;51.034;3.730;2024-02-04T10:57:00;12.40;99.90
36716;DHT22;22699;51.034;3.730;2024-02-04T10:59:29;12.20;99.90
36716;DHT22;22699;51.034;3.730;2024-02-04T11:01:57;12.30;99.90
36716;DHT22;22699;51.034;3.730;2024-02-04T11:04:23;12.30;99.90
36716;DHT22;22699;51.034;3.730;2024-02-04T11:06:49;12.30;99.90
36716;DHT22;22699;51.034;3.730;2024-02-04T11:09:16;12.30;99.90
36716;DHT22;22699;51.034;3.730;2024-02-04T11:11:43;12.40;99.90
36716;DHT22;22699;51.034;3.730;2024-02-04T11:14:11;12.30;99.90
36716;DHT22;22699;51.034;3.730;2024-02-04T11:27:24;12.40;99.90
36716;DHT22;22699;51.034;3.730;2024-02-04T11:29:51;12.50;99.90
36716;DHT22;22699;51.034;3.730;2024-02-04T11:32:17;12.50;99.90
36716;DHT22;22699;51.034;3.730;2024-02-04T11:34:44;12.50;99.90
36716;DHT22;22699;51.034;3.730;2024-02-04T11:37:17;12.50;99.90
36716;DHT22;22699;51.034;3.730;2024-02-04T11:39:52;12.40;99.90
36716;DHT22;22699;51.034;3.730;2024-02-04T11:42:18;12.50;99.90
36716;DHT22;22699;51.034;3.730;2024-02-04T11:44:46;12.60;99.90
36716;DHT22;22699;51.034;3.730;2024-02-04T11:47:11;12.70;99.90
36716;DHT22;22699;51.034;3.730;2024-02-04T11:49:54;12.50;99.90
36716;DHT22;22699;51.034;3.730;2024-02-04T11:52:20;12.50;99.90
36716;DHT22;22699;51.034;3.730;2024-02-04T11:54:45;12.60;99.90
36716;DHT22;22699;51.034;3.730;2024-02-04T11:57:11;12.50;99.90
36716;DHT22;22699;51.034;3.730;2024-02-04T11:59:39;12.50;99.90
36716;DHT22;22699;51.034;3.730;2024-02-04T12:02:08;12.50;99.90
36716;DHT22;22699;51.034;3.730;2024-02-04T12:04:34;12.60;99.90
36716;DHT22;22699;51.034;3.730;2024-02-04T12:07:01;12.50;99.90
36716;DHT22;22699;51.034;3.730;2024-02-04T12:09:28;12.70;99.90
36716;DHT22;22699;51.034;3.730;2024-02-04T12:11:54;12.70;99.90
36716;DHT22;22699;51.034;3.730;2024-02-04T12:14:20;12.60;99.90
36716;DHT22;22699;51.034;3.730;2024-02-04T12:16:46;12.80;99.90
36716;DHT22;22699;51.034;3.730;2024-02-04T12:19:13;12.60;99.90
36716;DHT22;22699;51.034;3.730;2024-02-04T12:21:39;12.50;99.90
36716;DHT22;22699;51.034;3.730;2024-02-04T12:24:05;12.40;99.90
36716;DHT22;22699;51.034;3.730;2024-02-04T12:26:31;12.40;99.90
36716;DHT22;22699;51.034;3.730;2024-02-04T12:28:56;12.40;99.90
36716;DHT22;22699;51.034;3.730;2024-02-04T12:31:25;12.30;99.90
36716;DHT22;22699;51.034;3.730;2024-02-04T12:34:00;12.20;99.90
36716;DHT22;22699;51.034;3.730;2024-02-04T12:36:27;12.30;99.90
36716;DHT22;22699;51.034;3.730;2024-02-04T12:38:54;12.30;99.90
36716;DHT22;22699;51.034;3.730;2024-02-04T12:41:21;12.20;99.90
36716;DHT22;22699;51.034;3.730;2024-02-04T12:43:55;12.20;99.90
36716;DHT22;22699;51.034;3.730;2024-02-04T12:46:22;12.50;99.90
36716;DHT22;22699;51.034;3.730;2024-02-04T12:48:55;12.50;99.90
36716;DHT22;22699;51.034;3.730;2024-02-04T12:51:29;12.40;99.90
36716;DHT22;22699;51.034;3.730;2024-02-04T12:56:40;12.40;99.90
36716;DHT22;22699;51.034;3.730;2024-02-04T12:59:07;12.70;99.90
36716;DHT22;22699;51.034;3.730;2024-02-04T13:01:33;12.40;99.90
36716;DHT22;22699;51.034;3.730;2024-02-04T13:03:59;12.30;99.90
36716;DHT22;22699;51.034;3.730;2024-02-04T13:06:24;12.30;99.90
36716;DHT22;22699;51.034;3.730;2024-02-04T13:08:54;12.30;99.90
36716;DHT22;22699;51.034;3.730;2024-02-04T13:11:23;12.30;99.90
36716;DHT22;22699;51.034;3.730;2024-02-04T13:13:48;12.40;99.90
36716;DHT22;22699;51.034;3.730;2024-02-04T13:16:14;12.50;99.90
36716;DHT22;22699;51.034;3.730;2024-02-04T13:18:39;12.60;99.90
36716;DHT22;22699;51.034;3.730;2024-02-04T13:21:05;12.50;99.90
36716;DHT22;22699;51.034;3.730;2024-02-04T13:23:30;12.40;99.90
36716;DHT22;22699;51.034;3.730;2024-02-04T13:25:56;12.50;99.90
36716;DHT22;22699;51.034;3.730;2024-02-04T13:28:22;12.50;99.90
36716;DHT22;22699;51.034;3.730;2024-02-04T13:30:48;12.50;99.90
36716;DHT22;22699;51.034;3.730;2024-02-04T13:33:14;12.60;99.90
36716;DHT22;22699;51.034;3.730;2024-02-04T13:35:39;12.50;99.90
36716;DHT22;22699;51.034;3.730;2024-02-04T13:38:05;12.50;99.90
36716;DHT22;22699;51.034;3.730;2024-02-04T13:40:34;12.40;99.90
36716;DHT22;22699;51.034;3.730;2024-02-04T13:42:59;12.40;99.90
36716;DHT22;22699;51.034;3.730;2024-02-04T13:45:25;12.50;99.90
36716;DHT22;22699;51.034;3.730;2024-02-04T13:47:51;12.50;99.90
36716;DHT22;22699;51.034;3.730;2024-02-04T13:50:16;12.60;99.90
36716;DHT22;22699;51.034;3.730;2024-02-04T13:52:42;12.60;99.90
36716;DHT22;22699;51.034;3.730;2024-02-04T13:55:08;12.50;99.90
36716;DHT22;22699;51.034;3.730;2024-02-04T13:57:34;12.50;99.90
36716;DHT22;22699;51.034;3.730;2024-02-04T14:00:00;12.60;99.90
36716;DHT22;22699;51.034;3.730;2024-02-04T14:02:26;12.70;99.90
36716;DHT22;22699;51.034;3.730;2024-02-04T14:04:55;12.80;99.90
36716;DHT22;22699;51.034;3.730;2024-02-04T14:07:21;12.90;99.90
36716;DHT22;22699;51.034;3.730;2024-02-04T14:09:46;12.80;99.90
36716;DHT22;22699;51.034;3.730;2024-02-04T14:12:12;12.80;99.90
36716;DHT22;22699;51.034;3.730;2024-02-04T14:14:39;13.00;99.90
36716;DHT22;22699;51.034;3.730;2024-02-04T14:17:05;13.20;99.90
36716;DHT22;22699;51.034;3.730;2024-02-04T14:19:30;13.20;99.90
36716;DHT22;22699;51.034;3.730;2024-02-04T14:21:56;12.90;99.90
36716;DHT22;22699;51.034;3.730;2024-02-04T14:24:22;12.80;99.90
36716;DHT22;22699;51.034;3.730;2024-02-04T14:26:47;12.80;99.90
36716;DHT22;22699;51.034;3.730;2024-02-04T14:29:13;12.80;99.90
36716;DHT22;22699;51.034;3.730;2024-02-04T14:31:39;12.90;99.90
36716;DHT22;22699;51.034;3.730;2024-02-04T14:34:04;12.80;99.90
36716;DHT22;22699;51.034;3.730;2024-02-04T14:36:30;12.90;99.90
36716;DHT22;22699;51.034;3.730;2024-02-04T14:38:56;12.80;99.90
36716;DHT22;22699;51.034;3.730;2024-02-04T14:41:23;12.80;99.90
36716;DHT22;22699;51.034;3.730;2024-02-04T14:43:48;12.80;99.90
36716;DHT22;22699;51.034;3.730;2024-02-04T14:46:14;12.70;99.90
36716;DHT22;22699;51.034;3.730;2024-02-04T14:48:40;12.70;99.90
36716;DHT22;22699;51.034;3.730;2024-02-04T14:51:05;12.70;99.90
36716;DHT22;22699;51.034;3.730;2024-02-04T14:53:31;12.70;99.90
36716;DHT22;22699;51.034;3.730;2024-02-04T14:55:57;12.70;99.90
36716;DHT22;22699;51.034;3.730;2024-02-04T14:58:23;12.70;99.90
36716;DHT22;22699;51.034;3.730;2024-02-04T15:00:49;12.70;99.90
36716;DHT22;22699;51.034;3.730;2024-02-04T15:03:15;12.60;99.90
36716;DHT22;22699;51.034;3.730;2024-02-04T15:05:41;12.60;99.90
36716;DHT22;22699;51.034;3.730;2024-02-04T15:08:07;12.60;99.90
36716;DHT22;22699;51.034;3.730;2024-02-04T15:10:33;12.60;99.90
36716;DHT22;22699;51.034;3.730;2024-02-04T15:13:00;12.60;99.90
36716;DHT22;22699;51.034;3.730;2024-02-04T15:15:26;12.70;99.90
36716;DHT22;22699;51.034;3.730;2024-02-04T15:17:52;12.70;99.90
36716;DHT22;22699;51.034;3.730;2024-02-04T15:20:18;12.70;99.90
36716;DHT22;22699;51.034;3.730;2024-02-04T15:22:44;12.80;99.90
36716;DHT22;22699;51.034;3.730;2024-02-04T15:25:10;12.80;99.90
36716;DHT22;22699;51.034;3.730;2024-02-04T15:27:38;12.90;99.90
36716;DHT22;22699;51.034;3.730;2024-02-04T15:30:06;12.70;99.90
36716;DHT22;22699;51.034;3.730;2024-02-04T15:32:32;12.60;99.90
36716;DHT22;22699;51.034;3.730;2024-02-04T15:34:58;12.60;99.90
36716;DHT22;22699;51.034;3.730;2024-02-04T15:37:23;12.50;99.90
36716;DHT22;22699;51.034;3.730;2024-02-04T15:39:49;12.50;99.90
36716;DHT22;22699;51.034;3.730;2024-02-04T15:42:15;12.50;99.90
36716;DHT22;22699;51.034;3.730;2024-02-04T15:44:41;12.60;99.90